Time;durP1;ratioP1;P1;durP2;ratioP2;P2;SDS_P1;SDS_P2;PMS_P1;PMS_P2;Temp;Humidity;BMP_temperature;BMP_pressure;BME280_temperature;BME280_humidity;BME280_pressure;Samples;Min_cycle;Max_cycle;Signal;HPM_P1;HPM_P2
2024/02/29 00:00:23;;;;;;;26.50;14.73;;;;;;;;;;5000795;28;20186;-87
2024/02/29 00:03:27;;;;;;;28.63;16.10;;;;;;;;;;5006418;28;20181;-86
2024/02/29 00:06:31;;;;;;;28.27;15.77;;;;;;;;;;4994912;28;20186;-86
2024/02/29 00:09:39;;;;;;;30.17;16.27;;;;;;;;;;4983997;28;20178;-86
2024/02/29 00:12:43;;;;;;;27.67;16.23;;;;;;;;;;4983805;28;20181;-86
2024/02/29 00:15:47;;;;;;;28.10;15.53;;;;;;;;;;5006265;28;20185;-86
2024/02/29 00:18:52;;;;;;;30.63;16.90;;;;;;;;;;4994510;28;20217;-86
2024/02/29 00:21:56;;;;;;;30.70;17.87;;;;;;;;;;5006191;28;20178;-85
2024/02/29 00:25:00;;;;;;;32.53;17.60;;;;;;;;;;4999383;28;20186;-88
2024/02/29 00:28:04;;;;;;;30.90;17.47;;;;;;;;;;4999026;28;20233;-87
2024/02/29 00:31:08;;;;;;;30.33;17.30;;;;;;;;;;4999392;28;20182;-87
2024/02/29 00:34:12;;;;;;;28.57;17.13;;;;;;;;;;4988474;28;20182;-87
2024/02/29 00:37:17;;;;;;;31.17;16.60;;;;;;;;;;5011083;28;20570;-88
2024/02/29 00:40:21;;;;;;;28.37;16.50;;;;;;;;;;4988122;28;20185;-88
2024/02/29 00:43:26;;;;;;;33.57;17.73;;;;;;;;;;5011480;28;20181;-88
2024/02/29 00:46:30;;;;;;;31.10;15.77;;;;;;;;;;4988366;28;20185;-87
2024/02/29 00:49:35;;;;;;;27.83;16.90;;;;;;;;;;4999235;28;20182;-88
2024/02/29 00:52:39;;;;;;;33.43;17.23;;;;;;;;;;4988124;28;20181;-88
2024/02/29 00:55:43;;;;;;;27.60;16.07;;;;;;;;;;5004126;28;20178;-85
2024/02/29 00:58:47;;;;;;;26.50;15.47;;;;;;;;;;5006179;28;20214;-86
2024/02/29 01:01:51;;;;;;;32.03;17.13;;;;;;;;;;4994563;28;20181;-86
2024/02/29 01:04:55;;;;;;;29.73;16.67;;;;;;;;;;4983381;28;20181;-86
2024/02/29 01:07:59;;;;;;;33.40;17.23;;;;;;;;;;4994699;28;20221;-86
2024/02/29 01:11:04;;;;;;;32.73;17.27;;;;;;;;;;5001261;28;20177;-87
2024/02/29 01:14:08;;;;;;;26.20;15.03;;;;;;;;;;4998770;28;20515;-88
2024/02/29 01:17:12;;;;;;;30.60;15.57;;;;;;;;;;4987839;28;20686;-88
2024/02/29 01:20:17;;;;;;;30.13;16.43;;;;;;;;;;5011052;28;20178;-87
2024/02/29 01:23:21;;;;;;;27.57;16.03;;;;;;;;;;4987824;28;20185;-87
2024/02/29 01:26:25;;;;;;;28.67;16.43;;;;;;;;;;4998940;28;20189;-88
2024/02/29 01:29:29;;;;;;;28.53;15.87;;;;;;;;;;4987323;28;20228;-88
2024/02/29 01:32:33;;;;;;;34.73;17.90;;;;;;;;;;4987763;28;20182;-88
2024/02/29 01:35:37;;;;;;;28.17;16.63;;;;;;;;;;5010742;28;20185;-88
2024/02/29 01:38:41;;;;;;;28.20;14.60;;;;;;;;;;4987215;28;20209;-88
2024/02/29 01:41:45;;;;;;;29.67;16.67;;;;;;;;;;4987703;28;20630;-88
2024/02/29 01:44:54;;;;;;;28.63;15.83;;;;;;;;;;4987651;28;20182;-87
2024/02/29 01:47:58;;;;;;;27.20;15.53;;;;;;;;;;5010745;28;20225;-88
2024/02/29 01:51:04;;;;;;;31.40;15.13;;;;;;;;;;4987973;28;20178;-88
2024/02/29 01:54:07;;;;;;;29.00;15.47;;;;;;;;;;5001182;28;20185;-87
2024/02/29 01:57:12;;;;;;;27.83;16.07;;;;;;;;;;5013717;28;20221;-87
2024/02/29 02:00:17;;;;;;;29.90;17.10;;;;;;;;;;4979520;28;20182;-87
2024/02/29 02:03:21;;;;;;;31.70;16.90;;;;;;;;;;4979671;28;20186;-87
2024/02/29 02:06:26;;;;;;;33.57;17.47;;;;;;;;;;5002006;28;20189;-85
2024/02/29 02:09:30;;;;;;;30.37;16.37;;;;;;;;;;5013727;28;20563;-85
2024/02/29 02:12:34;;;;;;;30.93;16.03;;;;;;;;;;4990476;28;20185;-85
2024/02/29 02:15:39;;;;;;;33.70;17.37;;;;;;;;;;4990411;28;20642;-85
2024/02/29 02:18:43;;;;;;;34.37;18.37;;;;;;;;;;5001100;28;20608;-85
2024/02/29 02:21:47;;;;;;;33.47;17.33;;;;;;;;;;4990312;28;20536;-85
2024/02/29 02:24:51;;;;;;;31.20;17.03;;;;;;;;;;5001132;28;20560;-85
2024/02/29 02:27:56;;;;;;;32.40;18.00;;;;;;;;;;5001127;28;20616;-85
2024/02/29 02:31:00;;;;;;;30.77;16.60;;;;;;;;;;4990115;28;20901;-85
2024/02/29 02:34:04;;;;;;;31.10;16.60;;;;;;;;;;5001798;28;20540;-85
2024/02/29 02:37:08;;;;;;;30.83;17.03;;;;;;;;;;5001122;28;20616;-85
2024/02/29 02:40:12;;;;;;;33.30;17.27;;;;;;;;;;5000928;28;20537;-85
2024/02/29 02:43:16;;;;;;;31.17;17.17;;;;;;;;;;5001357;28;20537;-85
2024/02/29 02:46:20;;;;;;;31.93;17.23;;;;;;;;;;4989676;28;20545;-85
2024/02/29 02:49:24;;;;;;;29.73;16.00;;;;;;;;;;4990221;28;20589;-88
2024/02/29 02:52:28;;;;;;;34.10;17.43;;;;;;;;;;4979067;28;20545;-88
2024/02/29 02:55:32;;;;;;;30.83;17.77;;;;;;;;;;5000928;28;20537;-88
2024/02/29 02:58:38;;;;;;;32.93;17.27;;;;;;;;;;5000614;28;20608;-88
2024/02/29 03:01:42;;;;;;;30.83;17.20;;;;;;;;;;5001087;28;20631;-87
2024/02/29 03:04:46;;;;;;;31.90;17.33;;;;;;;;;;4988676;28;20537;-87
2024/02/29 03:07:50;;;;;;;33.40;17.37;;;;;;;;;;4990018;28;20221;-87
2024/02/29 03:10:55;;;;;;;34.90;16.17;;;;;;;;;;4978812;28;20537;-87
2024/02/29 03:13:59;;;;;;;30.13;15.90;;;;;;;;;;5001025;28;20533;-87
2024/02/29 03:17:03;;;;;;;31.93;15.40;;;;;;;;;;4989726;28;20962;-88
2024/02/29 03:20:14;;;;;;;29.40;16.00;;;;;;;;;;5012893;28;20533;-87
2024/02/29 03:23:20;;;;;;;30.80;16.47;;;;;;;;;;4989671;28;20538;-87
2024/02/29 03:26:24;;;;;;;28.70;15.57;;;;;;;;;;5000401;28;21108;-88
2024/02/29 03:29:29;;;;;;;30.03;15.20;;;;;;;;;;5000778;28;20660;-87
2024/02/29 03:32:33;;;;;;;34.70;16.77;;;;;;;;;;5000759;28;21094;-87
2024/02/29 03:35:39;;;;;;;31.90;17.27;;;;;;;;;;5000018;28;20643;-87
2024/02/29 03:38:44;;;;;;;34.67;16.73;;;;;;;;;;4989110;28;20988;-87
2024/02/29 03:41:48;;;;;;;32.80;17.47;;;;;;;;;;4989516;28;20545;-87
2024/02/29 03:44:52;;;;;;;36.23;18.53;;;;;;;;;;5000113;28;20533;-87
2024/02/29 03:47:56;;;;;;;36.63;19.07;;;;;;;;;;4999942;28;20616;-87
2024/02/29 03:51:00;;;;;;;36.47;19.53;;;;;;;;;;4988869;28;20526;-86
2024/02/29 03:54:04;;;;;;;37.83;19.83;;;;;;;;;;5000354;28;20545;-87
2024/02/29 03:57:08;;;;;;;40.07;18.97;;;;;;;;;;4988743;28;20612;-87
2024/02/29 04:00:12;;;;;;;32.03;17.63;;;;;;;;;;5000262;28;20537;-87
2024/02/29 04:03:17;;;;;;;32.00;16.67;;;;;;;;;;4988886;28;21101;-87
2024/02/29 04:06:21;;;;;;;31.73;17.37;;;;;;;;;;4988844;28;20537;-87
2024/02/29 04:09:25;;;;;;;33.60;17.87;;;;;;;;;;4988713;28;20593;-87
2024/02/29 04:12:30;;;;;;;32.43;17.23;;;;;;;;;;4999777;28;20891;-87
2024/02/29 04:15:33;;;;;;;38.67;19.13;;;;;;;;;;4999696;28;21049;-87
2024/02/29 04:18:39;;;;;;;38.63;18.93;;;;;;;;;;4988391;28;20629;-87
2024/02/29 04:21:45;;;;;;;37.27;17.30;;;;;;;;;;5011865;28;20537;-87
2024/02/29 04:24:50;;;;;;;36.63;18.70;;;;;;;;;;4988422;28;20545;-87
2024/02/29 04:27:54;;;;;;;31.73;17.23;;;;;;;;;;4999654;28;20612;-87
2024/02/29 04:30:58;;;;;;;35.47;19.10;;;;;;;;;;4988551;28;20871;-87
2024/02/29 04:34:02;;;;;;;36.37;18.23;;;;;;;;;;4988193;28;20545;-87
2024/02/29 04:37:07;;;;;;;37.27;18.57;;;;;;;;;;4999396;28;20621;-87
2024/02/29 04:40:11;;;;;;;38.57;19.70;;;;;;;;;;4988442;28;20533;-87
2024/02/29 04:43:16;;;;;;;39.23;19.03;;;;;;;;;;4988208;28;20537;-87
2024/02/29 04:46:20;;;;;;;35.77;19.53;;;;;;;;;;4977184;28;20537;-87
2024/02/29 04:49:24;;;;;;;36.00;18.67;;;;;;;;;;5011218;28;20597;-87
2024/02/29 04:52:28;;;;;;;33.40;17.60;;;;;;;;;;4999125;28;20548;-87
2024/02/29 04:55:34;;;;;;;36.37;18.23;;;;;;;;;;4999220;28;20533;-87
2024/02/29 04:58:38;;;;;;;38.27;17.83;;;;;;;;;;4999260;28;20609;-87
2024/02/29 05:01:42;;;;;;;33.77;17.87;;;;;;;;;;5011373;28;20537;-87
2024/02/29 05:04:46;;;;;;;40.73;19.80;;;;;;;;;;4999512;28;20541;-87
2024/02/29 05:07:51;;;;;;;37.97;18.87;;;;;;;;;;4976812;28;20645;-87
2024/02/29 05:10:54;;;;;;;36.30;19.03;;;;;;;;;;4976798;28;20537;-87
2024/02/29 05:13:59;;;;;;;35.80;18.97;;;;;;;;;;4998864;28;20541;-87
2024/02/29 05:17:03;;;;;;;31.47;18.13;;;;;;;;;;4998783;28;20616;-87
2024/02/29 05:20:07;;;;;;;37.17;19.77;;;;;;;;;;4998951;28;20533;-87
2024/02/29 05:23:11;;;;;;;40.93;20.30;;;;;;;;;;4976698;28;21069;-87
2024/02/29 05:26:16;;;;;;;40.73;19.93;;;;;;;;;;4998814;28;20557;-87
2024/02/29 05:29:19;;;;;;;38.83;19.17;;;;;;;;;;5014011;28;20660;-87
2024/02/29 05:32:24;;;;;;;37.93;19.07;;;;;;;;;;5002215;28;20541;-87
2024/02/29 05:35:28;;;;;;;38.17;19.27;;;;;;;;;;5014183;28;20546;-87
2024/02/29 05:38:33;;;;;;;42.20;20.47;;;;;;;;;;5002121;28;20620;-87
2024/02/29 05:41:36;;;;;;;44.13;20.67;;;;;;;;;;5014676;28;20544;-87
2024/02/29 05:44:40;;;;;;;40.93;19.70;;;;;;;;;;5002193;28;20540;-87
2024/02/29 05:47:44;;;;;;;40.27;20.67;;;;;;;;;;4979561;28;20619;-87
2024/02/29 05:50:49;;;;;;;37.53;19.77;;;;;;;;;;4991188;28;20600;-87
2024/02/29 05:53:53;;;;;;;39.77;20.27;;;;;;;;;;5002007;28;20533;-87
2024/02/29 05:56:58;;;;;;;50.27;24.73;;;;;;;;;;4990937;28;20612;-87
2024/02/29 06:00:03;;;;;;;74.47;34.83;;;;;;;;;;5015029;28;20533;-87
2024/02/29 06:03:14;;;;;;;51.87;24.97;;;;;;;;;;4991521;28;21105;-87
2024/02/29 06:06:18;;;;;;;56.57;26.20;;;;;;;;;;4990955;28;20549;-87
2024/02/29 06:09:23;;;;;;;51.60;24.70;;;;;;;;;;5001374;28;20635;-87
2024/02/29 06:12:29;;;;;;;49.53;23.20;;;;;;;;;;5013522;28;20566;-86
2024/02/29 06:15:34;;;;;;;49.27;24.57;;;;;;;;;;5001265;28;21092;-87
2024/02/29 06:18:38;;;;;;;48.60;24.47;;;;;;;;;;5001153;28;20606;-87
2024/02/29 06:21:42;;;;;;;55.03;25.63;;;;;;;;;;5002032;28;20545;-87
2024/02/29 06:24:46;;;;;;;48.67;23.83;;;;;;;;;;4990716;28;20552;-87
2024/02/29 06:27:50;;;;;;;50.60;23.20;;;;;;;;;;5001169;28;20977;-89
2024/02/29 06:30:54;;;;;;;44.43;22.80;;;;;;;;;;4990644;28;20209;-89
2024/02/29 06:33:59;;;;;;;50.57;22.33;;;;;;;;;;4990350;28;20552;-87
2024/02/29 06:37:03;;;;;;;41.00;18.53;;;;;;;;;;5012951;28;20217;-89
2024/02/29 06:40:10;;;;;;;33.63;18.33;;;;;;;;;;4990787;28;20182;-87
2024/02/29 06:43:15;;;;;;;32.13;16.83;;;;;;;;;;4992452;28;20186;-87
2024/02/29 06:46:19;;;;;;;45.53;23.17;;;;;;;;;;4981326;28;20181;-87
2024/02/29 06:49:23;;;;;;;48.93;24.57;;;;;;;;;;4981479;28;20214;-87
2024/02/29 06:52:28;;;;;;;52.57;24.23;;;;;;;;;;4992032;28;20185;-87
2024/02/29 06:55:33;;;;;;;50.33;23.67;;;;;;;;;;4981160;28;20177;-87
2024/02/29 06:58:37;;;;;;;40.33;20.90;;;;;;;;;;5001983;28;20221;-85
2024/02/29 07:01:41;;;;;;;33.33;18.47;;;;;;;;;;4980017;28;20178;-85
2024/02/29 07:04:45;;;;;;;35.03;17.97;;;;;;;;;;4980005;28;20648;-85
2024/02/29 07:07:52;;;;;;;29.70;17.47;;;;;;;;;;4990477;28;20221;-85
2024/02/29 07:10:56;;;;;;;29.30;18.10;;;;;;;;;;5001286;28;20205;-85
2024/02/29 07:14:00;;;;;;;43.37;18.03;;;;;;;;;;4979382;28;20186;-84
2024/02/29 07:17:05;;;;;;;30.67;17.37;;;;;;;;;;5001488;28;20221;-85
2024/02/29 07:20:13;;;;;;;30.70;17.37;;;;;;;;;;5001287;28;20182;-84
2024/02/29 07:23:18;;;;;;;28.90;15.07;;;;;;;;;;5001942;28;20186;-84
2024/02/29 07:26:22;;;;;;;32.80;17.30;;;;;;;;;;5012879;28;20185;-87
2024/02/29 07:29:26;;;;;;;28.27;16.30;;;;;;;;;;4979087;28;20201;-88
2024/02/29 07:32:32;;;;;;;27.00;15.53;;;;;;;;;;4979528;28;20190;-88
2024/02/29 07:36:07;;;;;;;29.47;16.20;;;;;;;;;;5013611;28;20185;-88
2024/02/29 07:39:12;;;;;;;30.53;16.87;;;;;;;;;;4989676;28;20523;-88
2024/02/29 07:42:16;;;;;;;33.13;16.07;;;;;;;;;;5000728;28;20189;-88
2024/02/29 07:45:20;;;;;;;25.97;14.30;;;;;;;;;;4989123;28;20177;-88
2024/02/29 07:48:26;;;;;;;28.67;16.63;;;;;;;;;;4988903;28;20603;-87
2024/02/29 07:51:31;;;;;;;27.20;15.73;;;;;;;;;;4977486;28;20213;-88
2024/02/29 07:54:35;;;;;;;30.43;17.77;;;;;;;;;;4978240;28;20181;-88
2024/02/29 07:57:39;;;;;;;36.57;19.63;;;;;;;;;;4978013;28;20217;-88
2024/02/29 08:00:43;;;;;;;35.77;20.13;;;;;;;;;;4977850;28;20515;-88
2024/02/29 08:03:47;;;;;;;37.37;19.40;;;;;;;;;;4989174;28;20186;-88
2024/02/29 08:06:51;;;;;;;34.77;19.60;;;;;;;;;;5012085;28;20527;-88
2024/02/29 08:09:55;;;;;;;34.93;19.60;;;;;;;;;;4977511;28;20222;-87
2024/02/29 08:12:59;;;;;;;35.50;19.73;;;;;;;;;;4988708;28;20185;-88
2024/02/29 08:16:04;;;;;;;37.93;19.97;;;;;;;;;;4977845;28;20186;-87
2024/02/29 08:19:08;;;;;;;34.00;18.80;;;;;;;;;;4977410;28;20531;-87
2024/02/29 08:22:13;;;;;;;36.60;19.07;;;;;;;;;;4977312;28;20173;-87
2024/02/29 08:25:17;;;;;;;35.70;18.30;;;;;;;;;;4999532;28;20186;-87
2024/02/29 08:28:21;;;;;;;36.43;18.97;;;;;;;;;;4988782;28;20229;-87
2024/02/29 08:31:26;;;;;;;34.00;19.07;;;;;;;;;;4977283;28;20548;-87
2024/02/29 08:34:30;;;;;;;39.03;20.43;;;;;;;;;;4988153;28;20185;-87
2024/02/29 08:37:35;;;;;;;48.67;24.93;;;;;;;;;;4977391;28;20698;-88
2024/02/29 08:40:39;;;;;;;58.87;30.60;;;;;;;;;;4988337;28;20181;-88
2024/02/29 08:43:43;;;;;;;49.23;26.43;;;;;;;;;;4977063;28;20529;-87
2024/02/29 08:46:47;;;;;;;51.87;26.90;;;;;;;;;;4988226;28;20177;-87
2024/02/29 08:49:53;;;;;;;55.93;26.60;;;;;;;;;;4977065;28;20190;-87
2024/02/29 08:52:56;;;;;;;45.33;25.97;;;;;;;;;;4977156;28;20186;-87
2024/02/29 08:56:01;;;;;;;51.20;25.13;;;;;;;;;;4977122;28;20182;-85
2024/02/29 08:59:05;;;;;;;46.57;25.60;;;;;;;;;;4988061;28;20178;-85
2024/02/29 09:02:09;;;;;;;52.57;27.03;;;;;;;;;;4986697;28;20181;-85
2024/02/29 09:05:15;;;;;;;48.10;26.23;;;;;;;;;;4987975;28;20182;-85
2024/02/29 09:08:19;;;;;;;51.87;27.13;;;;;;;;;;4987939;28;20563;-85
2024/02/29 09:11:23;;;;;;;54.27;26.50;;;;;;;;;;4999204;28;20209;-85
2024/02/29 09:14:27;;;;;;;48.93;25.77;;;;;;;;;;4987481;28;20181;-85
2024/02/29 09:17:32;;;;;;;49.40;24.93;;;;;;;;;;4987727;28;20221;-85
2024/02/29 09:20:35;;;;;;;48.80;25.40;;;;;;;;;;4998882;28;20177;-86
2024/02/29 09:23:40;;;;;;;47.67;26.30;;;;;;;;;;4987845;28;20186;-87
2024/02/29 09:26:44;;;;;;;47.23;25.33;;;;;;;;;;4998572;28;20197;-87
2024/02/29 09:29:48;;;;;;;48.67;25.27;;;;;;;;;;4988860;28;20217;-87
2024/02/29 09:32:53;;;;;;;45.63;23.70;;;;;;;;;;4989953;28;20182;-87
2024/02/29 09:35:57;;;;;;;46.90;24.97;;;;;;;;;;4989632;28;20186;-87
2024/02/29 09:39:04;;;;;;;41.40;23.40;;;;;;;;;;5001462;28;20190;-87
2024/02/29 09:42:09;;;;;;;43.37;23.27;;;;;;;;;;5000720;28;20615;-87
2024/02/29 09:45:14;;;;;;;42.13;23.43;;;;;;;;;;4978011;28;20185;-87
2024/02/29 09:48:18;;;;;;;39.40;23.17;;;;;;;;;;4989708;28;20594;-87
2024/02/29 09:51:23;;;;;;;43.40;23.77;;;;;;;;;;5000878;28;20674;-87
2024/02/29 10:04:38;;;;;;;40.83;21.63;;;;;;;;;;5014972;28;20193;-88
2024/02/29 10:07:47;;;;;;;38.90;22.77;;;;;;;;;;4987331;28;20217;-87
2024/02/29 10:10:51;;;;;;;37.10;21.80;;;;;;;;;;4998138;28;20666;-87
2024/02/29 10:13:55;;;;;;;43.20;22.63;;;;;;;;;;4999731;28;20182;-87
2024/02/29 10:17:02;;;;;;;38.83;21.77;;;;;;;;;;5014139;28;20694;-85
2024/02/29 10:20:12;;;;;;;45.47;24.00;;;;;;;;;;4993338;28;20186;-85
2024/02/29 10:23:16;;;;;;;41.10;23.53;;;;;;;;;;4981779;28;20630;-85
2024/02/29 10:26:20;;;;;;;41.87;23.30;;;;;;;;;;4981927;28;20189;-85
2024/02/29 10:29:24;;;;;;;44.73;23.80;;;;;;;;;;4993040;28;20212;-85
2024/02/29 10:32:29;;;;;;;45.50;25.60;;;;;;;;;;4982626;28;20280;-86
2024/02/29 10:35:34;;;;;;;44.77;25.17;;;;;;;;;;4982455;28;20185;-84
2024/02/29 10:38:38;;;;;;;42.13;23.87;;;;;;;;;;4983232;28;20555;-84
2024/02/29 10:41:49;;;;;;;43.00;23.67;;;;;;;;;;4981350;28;20174;-84
2024/02/29 10:44:55;;;;;;;36.10;21.33;;;;;;;;;;4990722;28;20520;-86
2024/02/29 10:48:22;;;;;;;42.40;23.43;;;;;;;;;;4980835;28;20217;-84
2024/02/29 10:51:32;;;;;;;36.70;21.20;;;;;;;;;;5039420;28;20202;-85
2024/02/29 10:54:55;;;;;;;43.70;23.73;;;;;;;;;;4993229;28;20527;-85
2024/02/29 10:58:09;;;;;;;35.60;21.13;;;;;;;;;;5004361;28;20693;-86
2024/02/29 11:01:14;;;;;;;38.67;21.93;;;;;;;;;;5001144;28;20178;-87
2024/02/29 11:04:18;;;;;;;36.23;20.40;;;;;;;;;;5001287;28;20182;-86
2024/02/29 11:07:24;;;;;;;37.60;21.43;;;;;;;;;;4989774;28;20217;-87
2024/02/29 11:10:28;;;;;;;33.77;19.30;;;;;;;;;;5012909;28;20185;-87
2024/02/29 11:13:33;;;;;;;33.97;20.53;;;;;;;;;;4989758;28;20186;-86
2024/02/29 11:16:41;;;;;;;30.73;18.47;;;;;;;;;;4989502;28;20182;-86
2024/02/29 11:19:56;;;;;;;39.37;20.03;;;;;;;;;;5000676;28;20185;-86
2024/02/29 11:23:06;;;;;;;35.53;18.93;;;;;;;;;;5001057;28;20170;-86
2024/02/29 11:26:12;;;;;;;33.03;18.47;;;;;;;;;;5000209;28;20182;-86
2024/02/29 11:29:22;;;;;;;30.10;17.30;;;;;;;;;;4989292;28;20235;-86
2024/02/29 11:32:29;;;;;;;32.80;17.10;;;;;;;;;;4989634;28;20703;-86
2024/02/29 11:35:33;;;;;;;27.70;14.93;;;;;;;;;;5000708;28;20177;-86
2024/02/29 11:38:37;;;;;;;26.10;15.03;;;;;;;;;;5000351;28;20221;-86
2024/02/29 11:41:41;;;;;;;23.57;14.17;;;;;;;;;;5000655;28;20630;-87
2024/02/29 11:44:48;;;;;;;27.43;13.80;;;;;;;;;;5000178;28;20182;-87
2024/02/29 11:47:52;;;;;;;23.47;14.00;;;;;;;;;;4978116;28;20543;-87
2024/02/29 11:50:57;;;;;;;24.03;14.63;;;;;;;;;;5000737;28;20209;-86
2024/02/29 11:54:01;;;;;;;25.43;13.93;;;;;;;;;;4989253;28;20182;-86
2024/02/29 11:57:05;;;;;;;24.00;13.40;;;;;;;;;;4988970;28;20217;-86
2024/02/29 12:00:10;;;;;;;26.40;14.60;;;;;;;;;;5012223;28;20189;-86
2024/02/29 12:03:14;;;;;;;28.80;14.33;;;;;;;;;;5011879;28;20630;-86
2024/02/29 12:06:19;;;;;;;25.67;14.33;;;;;;;;;;4989161;28;20182;-86
2024/02/29 12:09:24;;;;;;;25.30;14.60;;;;;;;;;;4989160;28;20182;-86
2024/02/29 12:12:29;;;;;;;28.67;15.60;;;;;;;;;;4988989;28;20205;-86
2024/02/29 12:15:35;;;;;;;31.23;16.93;;;;;;;;;;4988795;28;20182;-86
2024/02/29 12:18:39;;;;;;;28.77;15.93;;;;;;;;;;4988531;28;20217;-86
2024/02/29 12:21:43;;;;;;;28.33;16.43;;;;;;;;;;5000517;28;20177;-86
2024/02/29 12:24:47;;;;;;;28.17;16.37;;;;;;;;;;4988535;28;20181;-86
2024/02/29 12:27:52;;;;;;;26.33;16.53;;;;;;;;;;4988967;28;20225;-87
2024/02/29 12:30:56;;;;;;;27.40;16.70;;;;;;;;;;4977626;28;20182;-86
2024/02/29 12:34:01;;;;;;;28.30;16.17;;;;;;;;;;4988956;28;20524;-88
2024/02/29 12:37:09;;;;;;;30.63;16.30;;;;;;;;;;5011463;28;20721;-88
2024/02/29 12:40:14;;;;;;;30.43;16.57;;;;;;;;;;5000077;28;20185;-88
2024/02/29 12:43:22;;;;;;;29.70;16.43;;;;;;;;;;4988804;28;20178;-88
2024/02/29 12:46:26;;;;;;;25.63;14.87;;;;;;;;;;5011386;28;20178;-90
2024/02/29 12:49:30;;;;;;;27.63;16.43;;;;;;;;;;4977473;28;20181;-90
2024/02/29 12:52:35;;;;;;;26.53;16.37;;;;;;;;;;4988823;28;20213;-87
2024/02/29 12:55:39;;;;;;;26.53;15.37;;;;;;;;;;4988491;28;20186;-90
2024/02/29 12:58:46;;;;;;;27.10;15.40;;;;;;;;;;4999273;28;20217;-89
2024/02/29 13:01:52;;;;;;;25.47;14.90;;;;;;;;;;4988496;28;20182;-88
2024/02/29 13:04:57;;;;;;;25.57;14.53;;;;;;;;;;4988513;28;20185;-88
2024/02/29 13:08:02;;;;;;;25.63;15.00;;;;;;;;;;4999431;28;20217;-88
2024/02/29 13:11:06;;;;;;;21.97;14.10;;;;;;;;;;4999149;28;20662;-88
2024/02/29 13:14:11;;;;;;;23.30;14.10;;;;;;;;;;4999199;28;20181;-89
2024/02/29 13:17:15;;;;;;;23.90;14.63;;;;;;;;;;4987995;28;20221;-86
2024/02/29 13:20:19;;;;;;;26.10;14.97;;;;;;;;;;4999540;28;20181;-85
2024/02/29 13:23:23;;;;;;;26.13;13.43;;;;;;;;;;4999246;28;20618;-85
2024/02/29 13:26:27;;;;;;;28.33;14.93;;;;;;;;;;4988150;28;20182;-86
2024/02/29 13:29:33;;;;;;;25.50;14.03;;;;;;;;;;4987707;28;20208;-86
2024/02/29 13:32:37;;;;;;;29.23;14.87;;;;;;;;;;4998757;28;20216;-89
2024/02/29 13:35:43;;;;;;;23.87;13.97;;;;;;;;;;4988452;28;20186;-88
2024/02/29 13:39:13;;;;;;;25.73;14.63;;;;;;;;;;4987805;28;20213;-90
2024/02/29 13:42:18;;;;;;;29.03;14.10;;;;;;;;;;4998783;28;20186;-89
2024/02/29 13:45:23;;;;;;;23.93;12.87;;;;;;;;;;4987588;28;20185;-88
2024/02/29 13:58:07;;;;;;;22.93;13.00;;;;;;;;;;5083358;28;20211;-87
2024/02/29 14:01:12;;;;;;;25.90;13.63;;;;;;;;;;5095352;28;20191;-88
2024/02/29 14:04:16;;;;;;;22.33;12.30;;;;;;;;;;5060321;28;20183;-89
2024/02/29 14:07:20;;;;;;;22.60;12.90;;;;;;;;;;5071812;28;20214;-89
2024/02/29 14:10:24;;;;;;;25.50;13.67;;;;;;;;;;5095440;28;20628;-88
2024/02/29 14:13:28;;;;;;;23.07;12.80;;;;;;;;;;5060302;28;20222;-88
2024/02/29 14:16:32;;;;;;;23.87;12.83;;;;;;;;;;5072034;28;20183;-89
2024/02/29 14:19:36;;;;;;;22.77;12.63;;;;;;;;;;5003538;28;20193;-88
2024/02/29 14:22:41;;;;;;;20.50;12.40;;;;;;;;;;5002121;28;20182;-89
2024/02/29 14:25:45;;;;;;;21.90;11.67;;;;;;;;;;4990621;28;20177;-89
2024/02/29 14:28:51;;;;;;;28.70;12.03;;;;;;;;;;5001541;28;20225;-89
2024/02/29 14:31:55;;;;;;;25.87;13.10;;;;;;;;;;4990595;28;20210;-89
2024/02/29 14:34:59;;;;;;;20.43;11.77;;;;;;;;;;4979544;28;20185;-89
2024/02/29 14:38:04;;;;;;;24.93;12.37;;;;;;;;;;4980103;28;20221;-89
2024/02/29 14:41:08;;;;;;;21.53;12.90;;;;;;;;;;4981207;28;20185;-89
2024/02/29 14:44:12;;;;;;;27.87;13.17;;;;;;;;;;4991467;28;20185;-90
2024/02/29 14:47:17;;;;;;;24.07;13.00;;;;;;;;;;4991551;28;20217;-89
2024/02/29 14:50:21;;;;;;;28.83;13.77;;;;;;;;;;4991772;28;20177;-90
2024/02/29 14:53:26;;;;;;;25.63;13.53;;;;;;;;;;4991822;28;20213;-89
2024/02/29 14:56:31;;;;;;;25.20;14.87;;;;;;;;;;4980240;28;20524;-89
2024/02/29 14:59:35;;;;;;;25.87;14.07;;;;;;;;;;4980261;28;20186;-89
2024/02/29 15:02:39;;;;;;;29.17;14.00;;;;;;;;;;5038352;28;20177;-90
2024/02/29 15:05:43;;;;;;;26.53;14.57;;;;;;;;;;4991321;28;20273;-89
2024/02/29 15:08:47;;;;;;;32.17;14.93;;;;;;;;;;4991329;28;20217;-89
2024/02/29 15:11:51;;;;;;;28.70;14.90;;;;;;;;;;4979882;28;20213;-90
2024/02/29 15:14:57;;;;;;;30.53;15.63;;;;;;;;;;4980377;28;20182;-89
2024/02/29 15:18:01;;;;;;;30.87;16.07;;;;;;;;;;4991413;28;20214;-90
2024/02/29 15:21:05;;;;;;;28.50;16.60;;;;;;;;;;4979972;28;20178;-89
2024/02/29 15:24:09;;;;;;;26.00;15.53;;;;;;;;;;4980006;28;20181;-90
2024/02/29 15:27:13;;;;;;;27.60;16.00;;;;;;;;;;4990900;28;20220;-90
2024/02/29 15:30:17;;;;;;;29.77;15.20;;;;;;;;;;5000211;28;20186;-90
2024/02/29 15:33:21;;;;;;;25.07;15.77;;;;;;;;;;4977697;28;20693;-89
2024/02/29 15:36:25;;;;;;;28.40;15.90;;;;;;;;;;4977305;28;20186;-89
2024/02/29 15:39:29;;;;;;;28.10;15.90;;;;;;;;;;4977370;28;20181;-88
2024/02/29 15:42:34;;;;;;;33.40;17.97;;;;;;;;;;4977585;28;20173;-88
2024/02/29 15:45:38;;;;;;;40.50;20.23;;;;;;;;;;4977261;28;20626;-88
2024/02/29 15:48:42;;;;;;;62.50;22.67;;;;;;;;;;4977138;28;20696;-88
2024/02/29 15:51:47;;;;;;;34.17;18.53;;;;;;;;;;4976994;28;20182;-88
2024/02/29 15:54:51;;;;;;;35.13;20.07;;;;;;;;;;4977183;28;20178;-88
2024/02/29 15:57:55;;;;;;;32.23;18.43;;;;;;;;;;4977271;28;20221;-89
2024/02/29 16:01:00;;;;;;;34.23;20.57;;;;;;;;;;4977353;28;20519;-88
2024/02/29 16:04:04;;;;;;;37.73;20.90;;;;;;;;;;4977269;28;20182;-88
2024/02/29 16:07:09;;;;;;;43.13;25.60;;;;;;;;;;4976948;28;20220;-90
2024/02/29 16:10:13;;;;;;;76.67;38.90;;;;;;;;;;4988180;28;20182;-90
2024/02/29 16:13:18;;;;;;;52.67;27.20;;;;;;;;;;4976624;28;20213;-90
2024/02/29 16:16:22;;;;;;;43.67;25.87;;;;;;;;;;4977343;28;20186;-90
2024/02/29 16:19:27;;;;;;;64.33;36.63;;;;;;;;;;4977115;28;20185;-90
2024/02/29 16:22:31;;;;;;;54.10;30.60;;;;;;;;;;4976836;28;20182;-90
2024/02/29 16:40:17;;;;;;;50.83;27.67;;;;;;;;;;4971485;28;1271702;-89
2024/02/29 16:43:26;;;;;;;50.40;23.60;;;;;;;;;;4991403;28;20267;-89
2024/02/29 16:46:32;;;;;;;35.70;21.57;;;;;;;;;;4988578;28;20178;-90
2024/02/29 16:49:36;;;;;;;44.83;27.20;;;;;;;;;;4989696;28;20177;-87
2024/02/29 16:52:41;;;;;;;48.97;23.33;;;;;;;;;;4988787;28;20209;-90
2024/02/29 16:55:45;;;;;;;40.07;22.87;;;;;;;;;;4977259;28;20186;-91
2024/02/29 16:58:50;;;;;;;35.27;22.37;;;;;;;;;;4976882;28;20217;-88
2024/02/29 17:01:54;;;;;;;39.30;21.23;;;;;;;;;;4977751;28;20186;-88
2024/02/29 17:04:59;;;;;;;38.40;22.50;;;;;;;;;;4988608;28;20185;-88
2024/02/29 17:08:04;;;;;;;43.70;23.73;;;;;;;;;;4977552;28;20682;-88
2024/02/29 17:11:08;;;;;;;53.37;25.43;;;;;;;;;;4977106;28;20182;-88
2024/02/29 17:14:12;;;;;;;41.93;22.93;;;;;;;;;;4977318;28;20304;-88
2024/02/29 17:17:19;;;;;;;40.63;22.17;;;;;;;;;;4987999;28;20217;-88
2024/02/29 17:20:23;;;;;;;57.90;24.17;;;;;;;;;;4990052;28;20201;-85
2024/02/29 17:23:36;;;;;;;42.40;23.03;;;;;;;;;;5011859;28;20622;-85
2024/02/29 17:26:41;;;;;;;43.60;24.07;;;;;;;;;;5001682;28;20518;-87
2024/02/29 17:29:48;;;;;;;39.80;23.57;;;;;;;;;;5011686;28;20185;-84
2024/02/29 17:32:53;;;;;;;37.70;22.03;;;;;;;;;;5000105;28;20205;-85
2024/02/29 17:35:57;;;;;;;41.30;24.33;;;;;;;;;;5010970;28;20181;-85
2024/02/29 17:39:03;;;;;;;43.43;22.90;;;;;;;;;;4999940;28;20216;-85
2024/02/29 17:42:06;;;;;;;41.37;22.13;;;;;;;;;;5012046;28;20177;-85
2024/02/29 17:45:11;;;;;;;39.33;22.13;;;;;;;;;;5011740;28;20185;-85
2024/02/29 17:48:14;;;;;;;37.90;22.57;;;;;;;;;;5011228;28;20220;-84
2024/02/29 17:51:19;;;;;;;40.70;22.87;;;;;;;;;;5021728;28;20181;-85
2024/02/29 17:54:23;;;;;;;38.83;20.93;;;;;;;;;;5022361;28;20665;-85
2024/02/29 17:57:27;;;;;;;44.43;23.90;;;;;;;;;;5034460;28;20220;-85
2024/02/29 18:00:31;;;;;;;44.77;24.60;;;;;;;;;;5023674;28;20181;-83
2024/02/29 18:09:04;;;;;;;38.53;21.80;;;;;;;;;;5033360;28;20213;-90
2024/02/29 18:12:14;;;;;;;47.00;24.50;;;;;;;;;;5034125;28;20621;-89
2024/02/29 18:15:24;;;;;;;41.10;24.10;;;;;;;;;;5033488;28;20177;-90
2024/02/29 18:18:47;;;;;;;42.20;23.17;;;;;;;;;;5003693;28;20216;-89
2024/02/29 18:21:53;;;;;;;39.80;21.70;;;;;;;;;;4999260;28;20180;-89
2024/02/29 18:24:57;;;;;;;37.37;21.60;;;;;;;;;;5009937;28;20177;-90
2024/02/29 18:28:03;;;;;;;40.57;22.33;;;;;;;;;;5009991;28;20216;-89
2024/02/29 18:31:06;;;;;;;36.33;22.47;;;;;;;;;;5021269;28;20189;-89
2024/02/29 18:34:10;;;;;;;35.37;21.20;;;;;;;;;;4998527;28;20209;-90